Time;durP1;ratioP1;P1;durP2;ratioP2;P2;SDS_P1;SDS_P2;PMS_P1;PMS_P2;Temp;Humidity;BMP_temperature;BMP_pressure;BME280_temperature;BME280_humidity;BME280_pressure;Samples;Min_cycle;Max_cycle;Signal;HPM_P1;HPM_P2
2022/01/21 00:02:02;;;;;;;7.90;1.67;;;;;;;;;;5033250;27;100606;-74
2022/01/21 00:04:29;;;;;;;5.80;1.75;;;;;;;;;;5033283;27;100239;-75
2022/01/21 00:06:56;;;;;;;5.13;2.28;;;;;;;;;;5015675;28;100080;-74
2022/01/21 00:09:23;;;;;;;7.18;2.10;;;;;;;;;;5032194;28;102128;-74
2022/01/21 00:11:50;;;;;;;5.95;2.45;;;;;;;;;;5029234;28;101749;-74
2022/01/21 00:14:16;;;;;;;12.13;2.28;;;;;;;;;;5030866;28;100160;-74
2022/01/21 00:16:43;;;;;;;7.78;1.98;;;;;;;;;;5032426;28;100115;-74
2022/01/21 00:19:14;;;;;;;9.15;2.30;;;;;;;;;;5014615;28;100218;-74
2022/01/21 00:30:14;;;;;;;7.30;2.30;;;;;;;;;;5012130;28;100264;-74
2022/01/21 00:32:43;;;;;;;4.55;2.47;;;;;;;;;;4997329;28;104206;-74
2022/01/21 00:35:10;;;;;;;8.82;2.60;;;;;;;;;;4995513;28;100263;-74
2022/01/21 00:37:36;;;;;;;6.65;2.90;;;;;;;;;;5012779;28;100037;-75
2022/01/21 00:40:05;;;;;;;10.07;2.58;;;;;;;;;;5007352;28;102113;-75
2022/01/21 00:45:09;;;;;;;8.93;2.90;;;;;;;;;;4999756;28;100190;-75
2022/01/21 00:47:35;;;;;;;10.57;2.55;;;;;;;;;;5033445;28;100042;-75
2022/01/21 00:50:02;;;;;;;8.63;2.63;;;;;;;;;;5031189;28;100350;-74
2022/01/21 00:52:29;;;;;;;10.25;2.63;;;;;;;;;;5031179;28;100515;-76
2022/01/21 00:54:56;;;;;;;6.22;2.13;;;;;;;;;;5015027;28;100134;-75
2022/01/21 00:57:24;;;;;;;6.07;2.25;;;;;;;;;;5032070;28;100023;-75
2022/01/21 00:59:51;;;;;;;4.68;1.95;;;;;;;;;;5032735;28;100135;-75
2022/01/21 01:02:18;;;;;;;6.70;1.73;;;;;;;;;;5031402;28;100562;-75
2022/01/21 01:04:45;;;;;;;6.75;2.63;;;;;;;;;;5031393;28;100306;-75
2022/01/21 01:07:12;;;;;;;4.88;1.70;;;;;;;;;;5031819;28;100425;-75
2022/01/21 01:09:41;;;;;;;5.55;1.70;;;;;;;;;;5033603;27;100845;-75
2022/01/21 01:12:21;;;;;;;5.35;2.05;;;;;;;;;;5018188;28;100624;-75
2022/01/21 01:20:19;;;;;;;4.40;1.92;;;;;;;;;;5024328;28;102898;-75
2022/01/21 01:23:07;;;;;;;9.18;1.83;;;;;;;;;;5023913;28;100862;-75
2022/01/21 01:28:20;;;;;;;10.30;2.08;;;;;;;;;;5036410;28;99959;-74
2022/01/21 01:30:47;;;;;;;7.50;2.17;;;;;;;;;;5017611;28;100710;-74
2022/01/21 01:33:21;;;;;;;6.32;1.75;;;;;;;;;;5017390;28;100625;-75
2022/01/21 01:35:49;;;;;;;6.00;2.10;;;;;;;;;;5034306;28;102132;-75
2022/01/21 01:41:07;;;;;;;6.32;1.63;;;;;;;;;;5002982;28;100979;-74
2022/01/21 01:52:12;;;;;;;5.95;1.63;;;;;;;;;;5033168;28;100971;-74
2022/01/21 01:54:41;;;;;;;5.22;1.50;;;;;;;;;;5016290;28;102026;-74
2022/01/21 01:57:08;;;;;;;6.07;1.92;;;;;;;;;;5034022;28;100230;-74
2022/01/21 01:59:35;;;;;;;4.88;1.50;;;;;;;;;;5001503;28;100165;-74
2022/01/21 02:02:09;;;;;;;6.28;1.92;;;;;;;;;;5033771;28;100402;-74
2022/01/21 02:04:37;;;;;;;6.30;1.70;;;;;;;;;;5001972;28;100511;-74
2022/01/21 02:07:03;;;;;;;5.80;2.10;;;;;;;;;;5016682;28;100056;-74
2022/01/21 02:09:31;;;;;;;6.13;1.85;;;;;;;;;;4997747;28;100125;-75
2022/01/21 02:11:57;;;;;;;5.85;1.60;;;;;;;;;;4979908;28;101382;-74
2022/01/21 02:14:36;;;;;;;6.90;2.08;;;;;;;;;;5013724;28;100682;-74
2022/01/21 02:17:08;;;;;;;4.85;1.20;;;;;;;;;;5013680;28;100106;-74
2022/01/21 02:22:27;;;;;;;8.23;1.88;;;;;;;;;;4999318;28;100363;-74
2022/01/21 02:24:58;;;;;;;6.43;1.90;;;;;;;;;;4997289;28;100739;-74
2022/01/21 02:27:25;;;;;;;3.30;1.52;;;;;;;;;;5015181;28;99983;-73
2022/01/21 02:29:58;;;;;;;6.28;1.48;;;;;;;;;;4999370;28;100112;-73
2022/01/21 02:32:26;;;;;;;4.18;1.38;;;;;;;;;;5031778;28;100228;-73
2022/01/21 02:34:53;;;;;;;6.50;1.50;;;;;;;;;;5034397;27;101076;-73
2022/01/21 02:37:21;;;;;;;5.15;1.45;;;;;;;;;;5034816;27;99927;-74
2022/01/21 02:39:49;;;;;;;5.43;1.63;;;;;;;;;;5017408;28;99971;-75
2022/01/21 02:42:18;;;;;;;4.45;1.40;;;;;;;;;;5049023;27;100562;-75
2022/01/21 02:44:45;;;;;;;3.85;1.17;;;;;;;;;;5032540;28;100757;-75
2022/01/21 02:47:12;;;;;;;3.80;1.25;;;;;;;;;;5013780;28;100098;-75
2022/01/21 02:49:44;;;;;;;4.22;1.30;;;;;;;;;;5013480;28;100190;-75
2022/01/21 02:52:11;;;;;;;4.18;1.50;;;;;;;;;;4996433;28;100854;-75
2022/01/21 02:54:38;;;;;;;3.90;1.35;;;;;;;;;;5013176;28;101003;-75
2022/01/21 02:57:05;;;;;;;3.75;1.10;;;;;;;;;;5019473;28;101183;-75
2022/01/21 02:59:32;;;;;;;3.13;1.08;;;;;;;;;;5013565;28;100046;-75
2022/01/21 03:02:00;;;;;;;3.25;1.20;;;;;;;;;;5012447;28;100254;-75
2022/01/21 03:04:45;;;;;;;4.53;1.20;;;;;;;;;;4996316;28;100607;-74
2022/01/21 03:07:15;;;;;;;3.70;1.40;;;;;;;;;;5007173;28;100240;-74
2022/01/21 03:09:42;;;;;;;3.58;1.13;;;;;;;;;;5032118;28;100164;-74
2022/01/21 03:12:09;;;;;;;1.60;0.90;;;;;;;;;;4998744;28;100274;-74
2022/01/21 03:14:36;;;;;;;1.98;0.93;;;;;;;;;;4985990;28;100783;-74
2022/01/21 03:17:03;;;;;;;3.50;1.35;;;;;;;;;;5013202;28;100030;-74
2022/01/21 03:19:30;;;;;;;7.78;1.45;;;;;;;;;;5013123;28;100051;-74
2022/01/21 03:21:56;;;;;;;4.22;1.30;;;;;;;;;;4996155;28;100339;-75
2022/01/21 03:24:23;;;;;;;4.63;1.40;;;;;;;;;;4982280;28;103551;-74
2022/01/21 03:26:50;;;;;;;9.15;1.75;;;;;;;;;;5032985;28;100601;-73
2022/01/21 03:29:17;;;;;;;7.45;1.13;;;;;;;;;;4996958;28;100104;-73
2022/01/21 03:31:44;;;;;;;5.03;1.20;;;;;;;;;;5013746;28;100387;-73
2022/01/21 03:34:11;;;;;;;2.67;1.00;;;;;;;;;;4979466;28;100557;-74
2022/01/21 03:36:40;;;;;;;4.57;1.10;;;;;;;;;;5012656;28;100208;-75
2022/01/21 03:39:07;;;;;;;1.80;0.90;;;;;;;;;;4996835;28;99872;-74
2022/01/21 03:41:34;;;;;;;2.25;0.90;;;;;;;;;;4995695;28;100488;-75
2022/01/21 03:44:03;;;;;;;4.68;1.10;;;;;;;;;;5012507;28;100664;-74
2022/01/21 03:46:31;;;;;;;5.50;1.30;;;;;;;;;;5027138;28;99855;-74
2022/01/21 03:48:59;;;;;;;5.15;1.33;;;;;;;;;;5033004;28;100069;-75
2022/01/21 03:51:25;;;;;;;3.97;1.08;;;;;;;;;;5032959;28;100306;-74
2022/01/21 03:53:52;;;;;;;3.28;0.90;;;;;;;;;;5031629;28;101094;-74
2022/01/21 03:56:24;;;;;;;3.78;1.17;;;;;;;;;;4981134;28;100085;-74
2022/01/21 03:58:54;;;;;;;4.82;1.13;;;;;;;;;;4996032;28;99946;-74
2022/01/21 04:01:23;;;;;;;3.83;0.93;;;;;;;;;;4995481;28;100154;-74
2022/01/21 04:03:51;;;;;;;2.63;1.00;;;;;;;;;;4995878;28;100583;-74
2022/01/21 04:06:18;;;;;;;2.33;0.95;;;;;;;;;;4995920;28;100136;-74
2022/01/21 04:08:45;;;;;;;2.55;0.90;;;;;;;;;;5013942;28;100090;-73
2022/01/21 04:11:11;;;;;;;5.18;1.50;;;;;;;;;;4995394;28;100382;-74
2022/01/21 04:13:45;;;;;;;6.05;1.23;;;;;;;;;;5011746;28;101117;-74
2022/01/21 04:16:16;;;;;;;4.35;1.33;;;;;;;;;;5029468;28;100133;-74
2022/01/21 04:18:44;;;;;;;2.63;1.08;;;;;;;;;;4997393;28;100067;-74
2022/01/21 04:21:12;;;;;;;2.47;0.73;;;;;;;;;;4995546;28;100192;-74
2022/01/21 04:23:39;;;;;;;4.60;1.10;;;;;;;;;;5011614;28;100639;-74
2022/01/21 04:26:09;;;;;;;2.58;0.98;;;;;;;;;;4996127;28;100124;-74
2022/01/21 04:28:36;;;;;;;5.55;1.25;;;;;;;;;;5012109;28;100025;-74
2022/01/21 04:31:05;;;;;;;5.03;1.10;;;;;;;;;;5011462;28;100132;-74
2022/01/21 04:33:49;;;;;;;3.70;0.90;;;;;;;;;;5014505;28;101132;-74
2022/01/21 04:36:16;;;;;;;3.53;1.00;;;;;;;;;;4995437;28;100045;-74
2022/01/21 04:38:43;;;;;;;3.25;1.17;;;;;;;;;;5012503;28;100085;-75
2022/01/21 04:49:13;;;;;;;1.70;0.63;;;;;;;;;;5021513;28;100197;-75
2022/01/21 04:51:51;;;;;;;3.28;0.85;;;;;;;;;;5018233;28;100569;-75
2022/01/21 04:54:18;;;;;;;2.58;1.02;;;;;;;;;;5035258;28;100606;-75
2022/01/21 04:56:45;;;;;;;6.95;1.10;;;;;;;;;;5018572;28;100044;-75
2022/01/21 04:59:12;;;;;;;3.88;1.00;;;;;;;;;;5015641;28;100170;-75
2022/01/21 05:01:42;;;;;;;2.92;1.20;;;;;;;;;;4982052;28;102774;-75
2022/01/21 05:04:09;;;;;;;3.78;0.90;;;;;;;;;;4981599;28;100532;-75
2022/01/21 05:06:36;;;;;;;7.68;1.67;;;;;;;;;;4998497;28;100124;-76
2022/01/21 05:09:05;;;;;;;2.85;1.00;;;;;;;;;;4999122;28;100026;-75
2022/01/21 05:11:37;;;;;;;4.47;1.23;;;;;;;;;;5014277;28;101629;-74
2022/01/21 05:14:18;;;;;;;3.20;1.15;;;;;;;;;;5015684;28;100628;-75
2022/01/21 05:17:02;;;;;;;3.85;0.90;;;;;;;;;;5001245;28;103719;-75
2022/01/21 05:19:29;;;;;;;4.00;1.00;;;;;;;;;;5015083;28;100054;-75
2022/01/21 05:22:22;;;;;;;5.57;1.52;;;;;;;;;;5014127;28;100732;-75
2022/01/21 05:24:51;;;;;;;3.83;1.17;;;;;;;;;;4998448;28;100582;-75
2022/01/21 05:27:18;;;;;;;4.35;1.05;;;;;;;;;;4981857;28;100057;-75
2022/01/21 05:29:48;;;;;;;4.10;1.00;;;;;;;;;;5014703;28;100034;-75
2022/01/21 05:32:21;;;;;;;4.25;0.80;;;;;;;;;;5013963;28;100758;-75
2022/01/21 05:34:59;;;;;;;5.22;0.90;;;;;;;;;;4998987;28;102676;-75
2022/01/21 05:37:52;;;;;;;4.10;1.02;;;;;;;;;;5031940;28;100126;-75
2022/01/21 05:40:30;;;;;;;2.90;0.80;;;;;;;;;;5034554;28;99927;-75
2022/01/21 05:43:23;;;;;;;5.18;1.48;;;;;;;;;;5019723;28;100226;-74
2022/01/21 05:46:25;;;;;;;3.88;1.33;;;;;;;;;;5023500;27;100512;-74
2022/01/21 05:49:03;;;;;;;4.05;1.10;;;;;;;;;;5015092;28;102305;-75
2022/01/21 05:51:48;;;;;;;1.90;0.90;;;;;;;;;;5033833;28;100057;-74
2022/01/21 05:54:32;;;;;;;2.95;0.98;;;;;;;;;;5004181;28;100397;-75
2022/01/21 05:57:30;;;;;;;4.50;1.08;;;;;;;;;;5014925;28;103435;-75
2022/01/21 05:59:57;;;;;;;6.47;1.15;;;;;;;;;;5018119;28;100197;-76
2022/01/21 06:02:24;;;;;;;2.72;0.80;;;;;;;;;;5013340;28;101222;-74
2022/01/21 06:04:51;;;;;;;4.10;0.90;;;;;;;;;;5012699;28;100229;-74
2022/01/21 06:07:19;;;;;;;3.50;1.15;;;;;;;;;;5013625;28;100018;-73
2022/01/21 06:09:46;;;;;;;3.65;1.00;;;;;;;;;;4980505;28;100090;-74
2022/01/21 06:12:13;;;;;;;2.83;0.77;;;;;;;;;;5013297;28;100184;-74
2022/01/21 06:14:40;;;;;;;2.55;0.95;;;;;;;;;;4995988;28;100189;-78
2022/01/21 06:17:12;;;;;;;1.98;0.70;;;;;;;;;;4980918;28;100729;-77
2022/01/21 06:19:39;;;;;;;3.42;1.02;;;;;;;;;;5013841;28;100102;-75
2022/01/21 06:22:06;;;;;;;6.32;1.08;;;;;;;;;;4981933;28;101490;-74
2022/01/21 06:24:33;;;;;;;3.35;1.08;;;;;;;;;;5012060;28;100254;-75
2022/01/21 06:27:02;;;;;;;5.88;1.08;;;;;;;;;;5012417;28;100736;-74
2022/01/21 06:29:29;;;;;;;3.55;0.93;;;;;;;;;;5031986;28;100165;-75
2022/01/21 06:31:56;;;;;;;2.40;0.90;;;;;;;;;;5032721;28;100042;-74
2022/01/21 06:34:23;;;;;;;2.88;0.73;;;;;;;;;;5032247;28;100621;-75
2022/01/21 06:36:50;;;;;;;3.90;0.93;;;;;;;;;;5031788;28;102570;-75
2022/01/21 06:39:17;;;;;;;6.60;1.20;;;;;;;;;;5025882;28;100062;-75
2022/01/21 06:41:46;;;;;;;2.55;1.40;;;;;;;;;;5014089;28;100137;-75
2022/01/21 06:44:14;;;;;;;2.15;1.10;;;;;;;;;;5012004;28;100298;-75
2022/01/21 06:46:41;;;;;;;3.83;1.20;;;;;;;;;;5013249;28;100711;-74
2022/01/21 06:49:08;;;;;;;4.75;1.75;;;;;;;;;;5013506;28;100173;-76
2022/01/21 06:51:35;;;;;;;9.63;2.35;;;;;;;;;;5013861;28;100041;-76
2022/01/21 06:54:02;;;;;;;4.60;1.92;;;;;;;;;;5018226;28;100162;-75
2022/01/21 06:56:30;;;;;;;5.43;1.77;;;;;;;;;;5033139;27;101214;-75
2022/01/21 06:58:57;;;;;;;4.18;1.65;;;;;;;;;;4997833;28;100443;-75
2022/01/21 07:01:26;;;;;;;5.97;1.55;;;;;;;;;;5033875;27;100107;-74
2022/01/21 07:03:53;;;;;;;4.03;1.50;;;;;;;;;;5027052;28;100206;-75
2022/01/21 07:06:20;;;;;;;6.57;1.48;;;;;;;;;;4994397;28;100570;-75
2022/01/21 07:08:47;;;;;;;4.07;1.25;;;;;;;;;;5013392;28;100053;-75
2022/01/21 07:11:14;;;;;;;4.00;1.40;;;;;;;;;;4996021;28;100142;-76
2022/01/21 07:13:40;;;;;;;3.63;1.52;;;;;;;;;;5029931;28;100712;-75
2022/01/21 07:16:07;;;;;;;5.43;1.27;;;;;;;;;;5006898;28;102780;-74
2022/01/21 07:18:34;;;;;;;5.45;1.20;;;;;;;;;;5015895;28;100276;-75
2022/01/21 07:21:01;;;;;;;3.70;1.35;;;;;;;;;;5012967;28;100018;-74
2022/01/21 07:23:28;;;;;;;2.95;1.33;;;;;;;;;;5030206;28;100267;-74
2022/01/21 07:25:55;;;;;;;4.47;1.30;;;;;;;;;;5019896;27;101774;-74
2022/01/21 07:28:21;;;;;;;5.18;1.40;;;;;;;;;;5017558;28;100115;-76
2022/01/21 07:30:49;;;;;;;4.53;1.10;;;;;;;;;;5025317;28;100122;-75
2022/01/21 07:33:16;;;;;;;5.00;1.30;;;;;;;;;;5017004;28;100336;-75
2022/01/21 07:35:43;;;;;;;4.72;1.73;;;;;;;;;;5031345;27;101101;-75
2022/01/21 07:38:11;;;;;;;4.82;1.40;;;;;;;;;;5011912;28;100199;-74
2022/01/21 07:40:38;;;;;;;4.47;1.45;;;;;;;;;;5008523;28;100107;-75
2022/01/21 07:43:05;;;;;;;7.45;1.83;;;;;;;;;;5014031;28;100161;-75
2022/01/21 07:45:32;;;;;;;2.85;1.38;;;;;;;;;;4998814;28;100574;-75
2022/01/21 07:47:59;;;;;;;4.90;1.40;;;;;;;;;;5015922;28;100202;-75
2022/01/21 07:50:31;;;;;;;5.13;1.38;;;;;;;;;;5001375;28;100180;-75
2022/01/21 07:52:58;;;;;;;4.53;1.13;;;;;;;;;;5012035;28;100293;-76
2022/01/21 07:55:25;;;;;;;1.92;1.00;;;;;;;;;;5017738;28;101211;-75
2022/01/21 07:57:52;;;;;;;5.07;1.38;;;;;;;;;;5018283;28;100183;-75
2022/01/21 08:00:19;;;;;;;4.40;1.15;;;;;;;;;;5016028;28;100073;-76
2022/01/21 08:02:46;;;;;;;6.13;1.52;;;;;;;;;;5016436;28;100700;-76
2022/01/21 08:05:13;;;;;;;5.75;1.55;;;;;;;;;;5014452;28;100578;-76
2022/01/21 08:07:40;;;;;;;3.58;1.15;;;;;;;;;;5000241;28;100326;-76
2022/01/21 08:10:07;;;;;;;3.95;1.40;;;;;;;;;;5017082;28;100114;-75
2022/01/21 08:12:34;;;;;;;2.90;0.98;;;;;;;;;;5016235;28;101657;-75
2022/01/21 08:15:00;;;;;;;3.85;1.45;;;;;;;;;;5012469;28;100522;-75
2022/01/21 08:17:29;;;;;;;5.40;1.50;;;;;;;;;;4996004;28;100145;-75
2022/01/21 08:19:57;;;;;;;7.72;1.40;;;;;;;;;;5001008;28;100143;-75
2022/01/21 08:22:25;;;;;;;6.97;1.25;;;;;;;;;;5033866;28;100380;-75
2022/01/21 08:24:52;;;;;;;5.07;1.73;;;;;;;;;;5034946;28;101865;-75
2022/01/21 08:27:19;;;;;;;7.18;2.08;;;;;;;;;;5017782;28;100143;-76
2022/01/21 08:29:46;;;;;;;5.50;1.67;;;;;;;;;;5018367;28;103075;-75
2022/01/21 08:32:13;;;;;;;5.80;1.88;;;;;;;;;;5017425;28;100707;-75
2022/01/21 08:34:41;;;;;;;5.50;1.85;;;;;;;;;;5030476;27;101743;-75
2022/01/21 08:37:08;;;;;;;4.50;1.98;;;;;;;;;;5006832;28;101767;-75
2022/01/21 08:39:34;;;;;;;6.80;1.65;;;;;;;;;;5035426;27;100280;-76
2022/01/21 08:42:03;;;;;;;3.33;1.33;;;;;;;;;;5033937;28;100335;-75
2022/01/21 08:44:30;;;;;;;4.68;1.80;;;;;;;;;;5000653;28;100553;-75
2022/01/21 08:46:57;;;;;;;8.40;1.92;;;;;;;;;;5035765;27;100068;-74
2022/01/21 08:49:37;;;;;;;8.60;1.83;;;;;;;;;;5034868;28;100125;-75
2022/01/21 08:52:04;;;;;;;4.90;2.00;;;;;;;;;;4981880;28;102941;-74
2022/01/21 08:54:31;;;;;;;7.72;2.00;;;;;;;;;;5014872;28;100565;-75
2022/01/21 08:56:58;;;;;;;8.98;2.20;;;;;;;;;;5018164;28;100066;-75
2022/01/21 08:59:26;;;;;;;5.03;1.90;;;;;;;;;;5034500;28;100205;-74
2022/01/21 09:01:54;;;;;;;6.63;2.10;;;;;;;;;;5033811;28;100261;-75
2022/01/21 09:04:21;;;;;;;5.55;1.95;;;;;;;;;;5033720;28;100651;-75
2022/01/21 09:06:48;;;;;;;5.75;1.88;;;;;;;;;;5033953;28;100151;-75
2022/01/21 09:09:15;;;;;;;6.18;2.30;;;;;;;;;;5005750;28;100124;-75
2022/01/21 09:11:42;;;;;;;4.60;2.40;;;;;;;;;;5016684;28;100513;-75
2022/01/21 09:14:09;;;;;;;6.95;2.45;;;;;;;;;;5005984;28;100611;-75
2022/01/21 09:16:36;;;;;;;12.73;2.63;;;;;;;;;;5013655;28;100042;-75
2022/01/21 09:19:10;;;;;;;8.68;2.65;;;;;;;;;;5017163;28;100131;-75
2022/01/21 09:21:41;;;;;;;6.97;2.38;;;;;;;;;;5030948;28;103153;-76
2022/01/21 09:24:07;;;;;;;7.53;2.30;;;;;;;;;;5016355;28;100535;-76
2022/01/21 09:26:34;;;;;;;3.40;1.92;;;;;;;;;;5033522;28;100295;-75
2022/01/21 09:29:03;;;;;;;5.75;2.22;;;;;;;;;;5021694;28;100041;-76
2022/01/21 09:31:30;;;;;;;4.85;2.20;;;;;;;;;;5018088;28;100351;-75
2022/01/21 09:34:17;;;;;;;9.68;2.45;;;;;;;;;;5004880;28;100526;-75
2022/01/21 09:36:44;;;;;;;5.15;2.00;;;;;;;;;;5019981;27;100193;-75
2022/01/21 09:39:11;;;;;;;5.90;1.77;;;;;;;;;;4994804;28;100228;-75
2022/01/21 09:41:39;;;;;;;4.40;1.70;;;;;;;;;;5026426;28;100207;-75
2022/01/21 09:44:10;;;;;;;6.70;2.00;;;;;;;;;;5018395;28;100607;-75
2022/01/21 09:46:42;;;;;;;6.32;2.45;;;;;;;;;;5019806;28;100296;-76
2022/01/21 09:49:25;;;;;;;8.00;2.28;;;;;;;;;;5018494;28;102405;-75
2022/01/21 09:52:03;;;;;;;9.15;2.03;;;;;;;;;;5011612;27;100257;-75
2022/01/21 09:54:37;;;;;;;;;;;;;;;;;;5040396;27;100686;-75
2022/01/21 09:57:05;;;;;;;9.38;2.55;;;;;;;;;;5055913;27;100267;-75
2022/01/21 09:59:34;;;;;;;6.80;2.38;;;;;;;;;;4997549;28;100224;-75
2022/01/21 10:02:06;;;;;;;11.80;2.47;;;;;;;;;;5013036;28;100246;-75
2022/01/21 10:04:35;;;;;;;8.57;3.00;;;;;;;;;;5031205;27;100561;-76
2022/01/21 10:07:02;;;;;;;11.02;2.80;;;;;;;;;;5017225;28;100237;-75
2022/01/21 10:09:29;;;;;;;5.65;2.42;;;;;;;;;;5012447;28;101323;-76
2022/01/21 10:11:58;;;;;;;6.50;2.67;;;;;;;;;;5026809;28;103546;-75
2022/01/21 10:14:26;;;;;;;4.75;2.40;;;;;;;;;;5016977;27;101714;-75
2022/01/21 10:16:53;;;;;;;6.43;2.30;;;;;;;;;;5030214;28;100118;-75
2022/01/21 10:19:24;;;;;;;10.57;2.70;;;;;;;;;;4995302;28;100537;-75
2022/01/21 10:22:03;;;;;;;5.28;2.35;;;;;;;;;;5010339;28;100792;-75
2022/01/21 10:24:30;;;;;;;7.80;3.10;;;;;;;;;;5011794;28;100579;-76
2022/01/21 10:26:57;;;;;;;7.22;2.00;;;;;;;;;;5011681;28;100031;-75
2022/01/21 10:29:33;;;;;;;6.10;2.20;;;;;;;;;;5012467;28;101009;-75
2022/01/21 10:32:00;;;;;;;8.30;2.50;;;;;;;;;;5028317;28;100247;-75
2022/01/21 10:34:39;;;;;;;7.30;2.33;;;;;;;;;;5021561;28;100841;-75
2022/01/21 10:37:49;;;;;;;6.63;2.75;;;;;;;;;;5029089;28;100068;-75
2022/01/21 10:40:16;;;;;;;6.18;2.15;;;;;;;;;;5029587;28;100479;-75
2022/01/21 10:42:43;;;;;;;8.20;2.45;;;;;;;;;;5029527;28;100332;-75
2022/01/21 10:45:09;;;;;;;9.43;2.53;;;;;;;;;;5028981;28;101155;-74
2022/01/21 10:47:38;;;;;;;7.78;3.05;;;;;;;;;;5031253;27;100342;-74
2022/01/21 10:50:13;;;;;;;4.78;2.20;;;;;;;;;;5026726;28;101174;-75
2022/01/21 10:52:43;;;;;;;5.05;2.10;;;;;;;;;;5028845;28;100182;-74
2022/01/21 10:55:32;;;;;;;6.15;1.70;;;;;;;;;;5029690;28;101844;-75
2022/01/21 10:58:15;;;;;;;4.88;1.88;;;;;;;;;;5029824;27;100302;-76
2022/01/21 11:01:01;;;;;;;5.10;2.05;;;;;;;;;;5030088;28;100152;-75
2022/01/21 11:03:32;;;;;;;8.38;2.70;;;;;;;;;;5022235;27;100605;-74
2022/01/21 11:06:16;;;;;;;5.93;2.50;;;;;;;;;;4993025;28;100819;-74
2022/01/21 11:08:43;;;;;;;8.43;2.28;;;;;;;;;;5016491;28;100105;-74
2022/01/21 11:11:10;;;;;;;7.45;2.08;;;;;;;;;;5009448;28;100169;-74
2022/01/21 11:13:38;;;;;;;3.78;1.70;;;;;;;;;;5029995;28;101424;-74
2022/01/21 11:16:11;;;;;;;6.55;1.63;;;;;;;;;;5010361;28;100563;-74
2022/01/21 11:19:06;;;;;;;6.43;1.20;;;;;;;;;;5008386;28;102315;-74
2022/01/21 11:21:45;;;;;;;7.80;1.67;;;;;;;;;;5009537;28;100108;-74
2022/01/21 11:24:12;;;;;;;3.42;1.30;;;;;;;;;;5010880;28;100303;-74
2022/01/21 11:26:39;;;;;;;6.28;1.20;;;;;;;;;;5020641;28;100560;-74
2022/01/21 11:29:06;;;;;;;4.90;1.55;;;;;;;;;;4995931;28;100035;-75
2022/01/21 11:31:33;;;;;;;6.57;1.60;;;;;;;;;;5008143;28;100757;-75
2022/01/21 11:34:10;;;;;;;5.03;1.52;;;;;;;;;;5009659;28;100512;-75
2022/01/21 11:36:37;;;;;;;6.82;2.13;;;;;;;;;;5009558;28;102912;-75
2022/01/21 11:39:07;;;;;;;4.15;1.75;;;;;;;;;;5010998;28;100259;-73
2022/01/21 11:41:34;;;;;;;6.50;1.70;;;;;;;;;;4994237;28;100094;-73
2022/01/21 11:44:03;;;;;;;4.32;1.65;;;;;;;;;;5025672;28;103194;-74
2022/01/21 11:49:25;;;;;;;4.05;1.10;;;;;;;;;;5020790;28;100319;-75
2022/01/21 11:52:07;;;;;;;4.78;1.08;;;;;;;;;;5029340;28;100731;-74
2022/01/21 11:54:36;;;;;;;6.47;1.50;;;;;;;;;;5016999;28;100678;-74
2022/01/21 11:57:05;;;;;;;5.78;1.83;;;;;;;;;;5014502;28;100563;-74
2022/01/21 11:59:52;;;;;;;5.75;1.30;;;;;;;;;;5024211;28;100117;-74
2022/01/21 12:02:25;;;;;;;4.07;1.13;;;;;;;;;;5016694;28;100023;-74
2022/01/21 12:05:00;;;;;;;6.75;1.40;;;;;;;;;;5018366;28;102184;-73
2022/01/21 12:07:27;;;;;;;5.22;1.08;;;;;;;;;;5020459;28;101725;-73
2022/01/21 12:09:55;;;;;;;5.57;1.55;;;;;;;;;;5018049;28;100538;-75
2022/01/21 12:12:23;;;;;;;9.98;2.67;;;;;;;;;;4992026;28;100068;-74
2022/01/21 12:14:57;;;;;;;7.63;1.67;;;;;;;;;;5013716;28;101452;-74
2022/01/21 12:17:43;;;;;;;4.38;1.33;;;;;;;;;;5008465;28;100698;-74
2022/01/21 12:20:10;;;;;;;4.43;1.30;;;;;;;;;;4995154;28;101552;-74
2022/01/21 12:22:37;;;;;;;6.10;1.65;;;;;;;;;;5011426;28;100139;-75
2022/01/21 12:25:08;;;;;;;12.88;1.60;;;;;;;;;;5010082;28;101472;-74
2022/01/21 12:27:36;;;;;;;5.93;1.42;;;;;;;;;;5009143;28;100678;-74
2022/01/21 12:30:27;;;;;;;5.93;1.75;;;;;;;;;;5023348;28;100247;-75
2022/01/21 12:32:58;;;;;;;3.88;1.50;;;;;;;;;;5026740;28;100399;-75
2022/01/21 12:35:45;;;;;;;4.60;1.30;;;;;;;;;;5003342;28;104658;-74
2022/01/21 12:40:59;;;;;;;6.35;1.35;;;;;;;;;;5010994;28;100779;-73
2022/01/21 12:43:46;;;;;;;5.72;1.05;;;;;;;;;;5008711;28;100023;-73
2022/01/21 12:46:15;;;;;;;5.68;1.17;;;;;;;;;;5027249;28;100164;-73
2022/01/21 12:48:46;;;;;;;7.22;1.70;;;;;;;;;;5009742;28;100691;-73
2022/01/21 12:51:45;;;;;;;7.25;1.73;;;;;;;;;;5004934;28;100393;-74
2022/01/21 12:56:58;;;;;;;3.78;1.15;;;;;;;;;;5008393;28;100236;-74
2022/01/21 12:59:26;;;;;;;3.67;1.17;;;;;;;;;;4992097;28;101092;-73
2022/01/21 13:01:53;;;;;;;2.50;0.93;;;;;;;;;;4989943;28;100253;-74
2022/01/21 13:04:49;;;;;;;7.22;1.85;;;;;;;;;;5009441;28;100098;-74
2022/01/21 13:07:34;;;;;;;5.22;0.88;;;;;;;;;;5028300;28;100176;-74
2022/01/21 13:10:22;;;;;;;5.28;1.20;;;;;;;;;;5033470;27;100581;-74
2022/01/21 14:15:43;;;;;;;2.15;0.90;;;;;;;;;;4834000;29;101146;-75
2022/01/21 14:25:31;;;;;;;3.72;1.50;;;;;;;;;;4839877;28;101206;-74
2022/01/21 14:39:15;;;;;;;5.97;1.60;;;;;;;;;;4910086;28;101595;-74
2022/01/21 14:41:45;;;;;;;5.13;1.35;;;;;;;;;;4920880;28;102379;-73
2022/01/21 14:44:44;;;;;;;4.18;1.30;;;;;;;;;;4935393;28;100387;-74
2022/01/21 14:47:14;;;;;;;4.90;1.67;;;;;;;;;;4986210;28;100467;-73
2022/01/21 14:49:47;;;;;;;5.80;1.60;;;;;;;;;;4988931;28;100838;-73
2022/01/21 14:55:17;;;;;;;6.30;1.90;;;;;;;;;;4994035;28;100081;-75
2022/01/21 14:57:54;;;;;;;4.88;1.88;;;;;;;;;;4978054;28;103294;-74
2022/01/21 15:00:31;;;;;;;8.50;2.30;;;;;;;;;;4988698;28;103147;-75
2022/01/21 15:03:07;;;;;;;8.25;2.08;;;;;;;;;;5008049;28;102164;-73
2022/01/21 15:05:35;;;;;;;8.88;2.10;;;;;;;;;;5008966;28;100378;-74
2022/01/21 15:08:02;;;;;;;10.95;2.60;;;;;;;;;;5008923;28;100060;-74
2022/01/21 15:10:43;;;;;;;10.50;2.42;;;;;;;;;;4992577;28;100237;-74
2022/01/21 15:16:17;;;;;;;5.75;2.40;;;;;;;;;;5016998;28;100114;-74
2022/01/21 15:18:44;;;;;;;8.60;2.55;;;;;;;;;;4978740;28;101746;-75
2022/01/21 15:21:19;;;;;;;9.73;3.10;;;;;;;;;;5009692;28;100186;-74
2022/01/21 15:23:48;;;;;;;6.32;2.40;;;;;;;;;;5009289;28;102749;-73
2022/01/21 15:26:30;;;;;;;15.15;3.63;;;;;;;;;;5030837;28;100162;-74
2022/01/21 15:29:04;;;;;;;10.75;3.53;;;;;;;;;;5030521;27;100149;-75
2022/01/21 15:31:31;;;;;;;14.35;4.28;;;;;;;;;;5029502;28;100316;-74
2022/01/21 15:33:58;;;;;;;12.02;3.00;;;;;;;;;;5031005;28;100604;-75
2022/01/21 15:36:25;;;;;;;10.30;2.85;;;;;;;;;;5030287;28;100508;-76
2022/01/21 15:38:54;;;;;;;5.70;2.50;;;;;;;;;;5029825;28;100189;-75
2022/01/21 15:41:21;;;;;;;8.73;2.97;;;;;;;;;;5013631;28;100346;-75
2022/01/21 15:43:48;;;;;;;8.15;2.60;;;;;;;;;;5030688;27;100759;-76
2022/01/21 15:46:15;;;;;;;8.35;2.15;;;;;;;;;;5030238;28;100139;-73
2022/01/21 15:48:47;;;;;;;9.52;2.70;;;;;;;;;;5014542;28;100267;-75
2022/01/21 15:51:14;;;;;;;9.02;2.22;;;;;;;;;;5030309;28;100173;-74
2022/01/21 15:53:41;;;;;;;9.75;2.70;;;;;;;;;;5013691;28;100592;-75
2022/01/21 15:56:08;;;;;;;9.95;2.13;;;;;;;;;;5013409;28;100085;-74
2022/01/21 15:58:35;;;;;;;6.60;2.17;;;;;;;;;;5030505;28;100156;-74
2022/01/21 16:01:02;;;;;;;10.23;2.42;;;;;;;;;;5031258;27;100265;-74
2022/01/21 16:03:35;;;;;;;7.15;1.77;;;;;;;;;;5030430;28;100744;-74
2022/01/21 16:06:04;;;;;;;7.35;2.20;;;;;;;;;;5030173;28;100152;-74
2022/01/21 16:08:32;;;;;;;10.68;2.13;;;;;;;;;;5012048;28;100153;-74
2022/01/21 16:10:59;;;;;;;8.68;1.70;;;;;;;;;;5011049;28;100773;-75
2022/01/21 16:13:26;;;;;;;4.68;1.95;;;;;;;;;;5010309;28;100571;-75
2022/01/21 16:15:53;;;;;;;10.23;2.03;;;;;;;;;;5011235;28;100348;-75
2022/01/21 16:18:20;;;;;;;6.63;1.80;;;;;;;;;;5009981;28;100199;-74
2022/01/21 16:20:46;;;;;;;7.05;2.40;;;;;;;;;;5010459;28;100141;-75
2022/01/21 16:23:15;;;;;;;8.55;1.75;;;;;;;;;;4982753;28;101530;-75
2022/01/21 16:25:51;;;;;;;6.47;1.85;;;;;;;;;;5014424;28;100233;-75
2022/01/21 16:28:18;;;;;;;4.10;1.95;;;;;;;;;;5013673;28;100252;-75
2022/01/21 16:30:45;;;;;;;4.22;1.60;;;;;;;;;;5017343;28;102884;-75
2022/01/21 16:33:12;;;;;;;7.95;1.60;;;;;;;;;;5009110;28;103108;-75
2022/01/21 16:35:39;;;;;;;10.82;2.25;;;;;;;;;;4993788;28;100084;-74
2022/01/21 16:38:11;;;;;;;5.55;1.58;;;;;;;;;;4995684;27;104238;-74
2022/01/21 16:40:40;;;;;;;5.63;1.73;;;;;;;;;;5014157;28;100344;-75
2022/01/21 16:43:07;;;;;;;5.85;1.77;;;;;;;;;;5014321;28;100763;-74
2022/01/21 16:45:33;;;;;;;9.23;1.88;;;;;;;;;;4996068;28;100101;-74
2022/01/21 16:48:01;;;;;;;11.70;1.67;;;;;;;;;;5015234;28;100192;-75
2022/01/21 16:50:28;;;;;;;5.97;2.63;;;;;;;;;;5033890;27;101343;-75
2022/01/21 16:52:55;;;;;;;4.03;1.73;;;;;;;;;;5027401;27;100648;-75
2022/01/21 16:55:24;;;;;;;3.50;1.48;;;;;;;;;;5021839;28;100137;-75
2022/01/21 16:57:52;;;;;;;6.15;1.40;;;;;;;;;;4989840;28;100607;-74
2022/01/21 17:00:20;;;;;;;6.43;2.10;;;;;;;;;;5025095;28;100275;-75
2022/01/21 17:02:50;;;;;;;5.97;2.15;;;;;;;;;;5031900;28;100803;-74
2022/01/21 17:05:17;;;;;;;4.70;2.40;;;;;;;;;;5033550;28;100117;-76